This is the latest recevied weather packets stored in our database for station/object OH2TI. If no packets are shown the sender has not sent any weather packets the latest 10 day(s).
| Time | Temp. | Humidity | Pressure | Rain* | Wind** | Luminosity | Snow |
|---|---|---|---|---|---|---|---|
| 1777636856 | 16.11° C | 49% | 1015.2 hPa | - | - | - | - |
| 1777636131 | 16.67° C | 48% | 1015.4 hPa | - | - | - | - |
| 1777635233 | 15.56° C | 50% | 1015.5 hPa | - | - | - | - |
| 1777634716 | 15° C | 50% | 1015.7 hPa | - | - | - | - |
| 1777634181 | 16.11° C | 49% | 1015.7 hPa | - | - | - | - |
| 1777633491 | 16.11° C | 48% | 1015.8 hPa | - | - | - | - |
| 1777632743 | 17.22° C | 47% | 1015.8 hPa | - | - | - | - |
| 1777632294 | 16.11° C | 48% | 1016 hPa | - | - | - | - |
| 1777631911 | 16.11° C | 48% | 1016 hPa | - | - | - | - |
| 1777631126 | 15.56° C | 49% | 1016.1 hPa | - | - | - | - |
| 1777630531 | 13.89° C | 56% | 1016.2 hPa | - | - | - | - |
| 1777629996 | 14.44° C | 53% | 1016.4 hPa | - | - | - | - |
| 1777629334 | 16.11° C | 49% | 1016.5 hPa | - | - | - | - |
| 1777628738 | 17.22° C | 42% | 1016.6 hPa | - | - | - | - |
| 1777628393 | 17.78° C | 41% | 1016.6 hPa | - | - | - | - |
| 1777627571 | 17.78° C | 42% | 1016.6 hPa | - | - | - | - |
| 1777626686 | 16.67° C | 43% | 1016.8 hPa | - | - | - | - |
| 1777626054 | 16.67° C | 44% | 1016.9 hPa | - | - | - | - |
| 1777625204 | 16.11° C | 47% | 1017 hPa | - | - | - | - |
| 1777624864 | 15° C | 52% | 1017 hPa | - | - | - | - |
| 1777624101 | 16.11° C | 50% | 1017.1 hPa | - | - | - | - |
| 1777623221 | 16.67° C | 47% | 1017.3 hPa | - | - | - | - |
| 1777622751 | 16.11° C | 48% | 1017.3 hPa | - | - | - | - |
| 1777622396 | 16.11° C | 48% | 1017.3 hPa | - | - | - | - |
| 1777621636 | 16.11° C | 48% | 1017.3 hPa | - | - | - | - |
* Rain since midnight (hover to see other rain measurements)
** Current wind speed in m/s (hover to see current wind gust speed)